Time;durP1;ratioP1;P1;durP2;ratioP2;P2;SDS_P1;SDS_P2;PMS_P1;PMS_P2;Temp;Humidity;BMP_temperature;BMP_pressure;BME280_temperature;BME280_humidity;BME280_pressure;Samples;Min_cycle;Max_cycle;Signal;HPM_P1;HPM_P2
2022/06/24 00:01:56;;;;;;;4.30;2.20;;;;;;;;;;5073327;28;20899;-75
2022/06/24 00:04:23;;;;;;;4.23;1.97;;;;;;;;;;5072814;28;20856;-74
2022/06/24 00:06:50;;;;;;;3.60;2.17;;;;;;;;;;5073322;28;20452;-75
2022/06/24 00:09:18;;;;;;;2.10;1.87;;;;;;;;;;5059354;28;20441;-75
2022/06/24 00:11:45;;;;;;;7.63;2.30;;;;;;;;;;5053242;28;20465;-75
2022/06/24 00:14:14;;;;;;;3.70;2.27;;;;;;;;;;5057401;28;20452;-75
2022/06/24 00:16:55;;;;;;;4.83;2.43;;;;;;;;;;5068629;28;20452;-74
2022/06/24 00:19:22;;;;;;;4.23;2.40;;;;;;;;;;5052925;28;20437;-75
2022/06/24 00:22:03;;;;;;;5.60;2.93;;;;;;;;;;5051208;28;20466;-75
2022/06/24 00:24:30;;;;;;;2.73;2.47;;;;;;;;;;5052564;28;20452;-76
2022/06/24 00:26:57;;;;;;;5.00;3.00;;;;;;;;;;5053019;28;20523;-74
2022/06/24 00:29:27;;;;;;;3.27;2.40;;;;;;;;;;5053058;28;20495;-75
2022/06/24 00:32:01;;;;;;;3.07;2.53;;;;;;;;;;5052683;28;20548;-76
2022/06/24 00:34:28;;;;;;;4.73;2.60;;;;;;;;;;5052719;28;20496;-75
2022/06/24 00:36:55;;;;;;;3.60;2.60;;;;;;;;;;5052364;28;20449;-74
2022/06/24 00:39:31;;;;;;;3.87;2.47;;;;;;;;;;5052572;28;20507;-74
2022/06/24 00:41:59;;;;;;;3.93;1.90;;;;;;;;;;5052394;28;20996;-74
2022/06/24 00:44:28;;;;;;;6.53;2.37;;;;;;;;;;5051782;28;20992;-75
2022/06/24 00:46:59;;;;;;;5.77;2.70;;;;;;;;;;5052215;28;20979;-73
2022/06/24 00:49:28;;;;;;;2.50;2.13;;;;;;;;;;5052238;28;20983;-74
2022/06/24 00:51:55;;;;;;;3.80;2.00;;;;;;;;;;5052536;28;20469;-75
2022/06/24 00:54:24;;;;;;;6.80;2.33;;;;;;;;;;5052309;28;20441;-74
2022/06/24 00:56:55;;;;;;;4.10;2.20;;;;;;;;;;5052360;28;20503;-73
2022/06/24 00:59:22;;;;;;;5.90;2.27;;;;;;;;;;5052090;28;20453;-74
2022/06/24 01:01:50;;;;;;;5.90;2.43;;;;;;;;;;5051668;28;21039;-74
2022/06/24 01:04:17;;;;;;;2.93;1.87;;;;;;;;;;5051721;28;20438;-73
2022/06/24 01:06:45;;;;;;;6.70;2.87;;;;;;;;;;5051837;28;20478;-74
2022/06/24 01:09:12;;;;;;;4.80;2.50;;;;;;;;;;5064415;28;20436;-75
2022/06/24 01:11:40;;;;;;;5.50;2.53;;;;;;;;;;5071510;28;21102;-74
2022/06/24 01:14:08;;;;;;;5.33;2.50;;;;;;;;;;5071482;28;20532;-74
2022/06/24 01:16:35;;;;;;;5.47;2.33;;;;;;;;;;5071536;28;20440;-74
2022/06/24 01:19:06;;;;;;;4.07;2.80;;;;;;;;;;5071522;28;20516;-74
2022/06/24 01:21:36;;;;;;;6.50;2.60;;;;;;;;;;5071512;28;20523;-74
2022/06/24 01:24:07;;;;;;;5.70;2.60;;;;;;;;;;5071173;28;20460;-74
2022/06/24 01:26:34;;;;;;;3.93;2.50;;;;;;;;;;5071343;28;21081;-74
2022/06/24 01:29:01;;;;;;;4.80;2.33;;;;;;;;;;5071264;28;20444;-73
2022/06/24 01:31:28;;;;;;;4.47;2.50;;;;;;;;;;5071282;28;20988;-74
2022/06/24 01:33:55;;;;;;;7.20;3.30;;;;;;;;;;5070530;28;20875;-74
2022/06/24 01:36:22;;;;;;;6.50;3.50;;;;;;;;;;5071253;28;20519;-73
2022/06/24 01:38:51;;;;;;;4.00;2.40;;;;;;;;;;5071023;28;20506;-76
2022/06/24 01:41:18;;;;;;;5.00;2.47;;;;;;;;;;5071152;28;20868;-73
2022/06/24 01:43:45;;;;;;;4.00;2.37;;;;;;;;;;5070520;28;20947;-74
2022/06/24 01:46:12;;;;;;;6.60;2.83;;;;;;;;;;5071343;28;20530;-73
2022/06/24 01:48:39;;;;;;;4.60;3.23;;;;;;;;;;5071122;28;20436;-73
2022/06/24 01:51:07;;;;;;;4.17;3.00;;;;;;;;;;5071060;28;21035;-74
2022/06/24 01:53:34;;;;;;;2.77;2.40;;;;;;;;;;5070782;28;20436;-73
2022/06/24 01:56:03;;;;;;;4.13;2.70;;;;;;;;;;5071028;28;20932;-73
2022/06/24 01:58:30;;;;;;;3.13;2.83;;;;;;;;;;5071178;28;20493;-74
2022/06/24 02:00:57;;;;;;;3.80;3.20;;;;;;;;;;5071124;28;20875;-74
2022/06/24 02:03:24;;;;;;;3.23;2.90;;;;;;;;;;5070410;28;20948;-74
2022/06/24 02:05:52;;;;;;;6.23;2.80;;;;;;;;;;5070743;28;20570;-75
2022/06/24 02:08:19;;;;;;;7.07;3.40;;;;;;;;;;5065072;28;20472;-74
2022/06/24 02:13:33;;;;;;;6.40;3.43;;;;;;;;;;5050804;28;20973;-74
2022/06/24 02:16:02;;;;;;;3.73;2.63;;;;;;;;;;5050770;28;20441;-74
2022/06/24 02:18:29;;;;;;;4.60;3.07;;;;;;;;;;5050484;28;20945;-75
2022/06/24 02:20:57;;;;;;;5.43;2.87;;;;;;;;;;5050639;28;20599;-75
2022/06/24 02:23:24;;;;;;;4.87;3.30;;;;;;;;;;5050504;28;20506;-75
2022/06/24 02:25:51;;;;;;;4.67;3.57;;;;;;;;;;5050668;28;20477;-73
2022/06/24 02:28:19;;;;;;;5.93;3.17;;;;;;;;;;5050816;28;20442;-74
2022/06/24 02:30:47;;;;;;;3.13;2.90;;;;;;;;;;5050729;28;20465;-74
2022/06/24 02:33:15;;;;;;;5.93;3.20;;;;;;;;;;5050220;28;20454;-74
2022/06/24 02:35:42;;;;;;;9.10;3.53;;;;;;;;;;5050308;28;20437;-74
2022/06/24 02:38:09;;;;;;;6.13;3.50;;;;;;;;;;5050767;28;20441;-74
2022/06/24 02:40:48;;;;;;;4.47;2.80;;;;;;;;;;5050721;28;20523;-74
2022/06/24 02:43:17;;;;;;;5.83;3.10;;;;;;;;;;5050086;28;20441;-74
2022/06/24 02:45:44;;;;;;;4.50;3.03;;;;;;;;;;5049263;28;20525;-75
2022/06/24 02:48:12;;;;;;;4.00;3.30;;;;;;;;;;5050040;28;20548;-74
2022/06/24 02:50:40;;;;;;;4.10;3.00;;;;;;;;;;5050406;28;20462;-74
2022/06/24 02:53:07;;;;;;;4.43;3.10;;;;;;;;;;5049999;28;20863;-74
2022/06/24 02:55:34;;;;;;;5.70;3.23;;;;;;;;;;5050089;28;20783;-74
2022/06/24 02:58:01;;;;;;;4.30;2.90;;;;;;;;;;5050039;28;20441;-73
2022/06/24 03:00:29;;;;;;;5.50;3.17;;;;;;;;;;5050010;28;20953;-74
2022/06/24 03:02:56;;;;;;;4.40;3.43;;;;;;;;;;5049924;28;20445;-74
2022/06/24 03:05:24;;;;;;;3.30;2.60;;;;;;;;;;5050648;28;20525;-74
2022/06/24 03:07:52;;;;;;;7.80;3.37;;;;;;;;;;5050112;28;20454;-74
2022/06/24 03:10:19;;;;;;;5.83;3.23;;;;;;;;;;5050137;28;20520;-74
2022/06/24 03:12:46;;;;;;;3.93;3.40;;;;;;;;;;5049632;28;20979;-74
2022/06/24 03:15:13;;;;;;;5.13;3.67;;;;;;;;;;5050118;28;20491;-74
2022/06/24 03:17:40;;;;;;;3.60;3.30;;;;;;;;;;5050484;28;20441;-75
2022/06/24 03:20:08;;;;;;;7.13;3.87;;;;;;;;;;5050479;28;20449;-74
2022/06/24 03:22:37;;;;;;;3.80;3.10;;;;;;;;;;5050107;28;20450;-73
2022/06/24 03:25:04;;;;;;;3.43;3.13;;;;;;;;;;5050435;28;20449;-75
2022/06/24 03:27:31;;;;;;;6.77;3.33;;;;;;;;;;5050057;28;20503;-74
2022/06/24 03:29:58;;;;;;;3.33;2.90;;;;;;;;;;5049534;28;20472;-75
2022/06/24 03:32:25;;;;;;;7.20;3.23;;;;;;;;;;5049842;28;20883;-74
2022/06/24 03:34:53;;;;;;;4.40;3.47;;;;;;;;;;5049664;28;20793;-75
2022/06/24 03:37:20;;;;;;;4.63;2.87;;;;;;;;;;5049907;28;20499;-74
2022/06/24 03:39:48;;;;;;;3.60;2.90;;;;;;;;;;5049728;28;20864;-75
2022/06/24 03:42:15;;;;;;;6.00;3.50;;;;;;;;;;5049615;28;20489;-73
2022/06/24 03:44:42;;;;;;;5.20;3.37;;;;;;;;;;5049282;28;20453;-75
2022/06/24 03:47:09;;;;;;;7.70;3.83;;;;;;;;;;5049596;28;20477;-74
2022/06/24 03:49:36;;;;;;;6.30;3.43;;;;;;;;;;5049672;28;20449;-74
2022/06/24 03:52:04;;;;;;;3.53;3.00;;;;;;;;;;5049382;28;20529;-73
2022/06/24 03:54:31;;;;;;;4.50;3.10;;;;;;;;;;5049431;28;20454;-73
2022/06/24 03:57:00;;;;;;;3.77;2.77;;;;;;;;;;5052263;28;20441;-73
2022/06/24 03:59:27;;;;;;;6.90;3.50;;;;;;;;;;5053455;28;20979;-75
2022/06/24 04:01:54;;;;;;;3.93;3.27;;;;;;;;;;5053414;28;20516;-73
2022/06/24 04:04:21;;;;;;;5.50;3.43;;;;;;;;;;5053131;28;20453;-74
2022/06/24 04:06:48;;;;;;;6.30;3.00;;;;;;;;;;5053360;28;20999;-75
2022/06/24 04:09:15;;;;;;;6.93;3.37;;;;;;;;;;5066564;28;20474;-75
2022/06/24 04:11:42;;;;;;;4.77;3.17;;;;;;;;;;5073131;28;20472;-75
2022/06/24 04:14:11;;;;;;;5.43;3.60;;;;;;;;;;5072843;28;20437;-74
2022/06/24 04:16:38;;;;;;;8.43;3.33;;;;;;;;;;5073028;28;20510;-74
2022/06/24 04:19:05;;;;;;;3.50;3.10;;;;;;;;;;5073016;28;20452;-74
2022/06/24 04:21:32;;;;;;;6.40;3.40;;;;;;;;;;5073091;28;20472;-76
2022/06/24 04:23:59;;;;;;;5.93;2.90;;;;;;;;;;5072586;28;20448;-74
2022/06/24 04:26:26;;;;;;;6.17;3.20;;;;;;;;;;5073177;28;20480;-77
2022/06/24 04:28:53;;;;;;;3.97;3.30;;;;;;;;;;5070969;28;20565;-75
2022/06/24 04:31:21;;;;;;;4.90;3.47;;;;;;;;;;5073309;28;20465;-76
2022/06/24 04:33:50;;;;;;;4.13;3.10;;;;;;;;;;5073751;28;20499;-74
2022/06/24 04:36:17;;;;;;;6.90;3.50;;;;;;;;;;5075552;28;20958;-75
2022/06/24 04:38:44;;;;;;;7.10;3.80;;;;;;;;;;5076071;28;20442;-76
2022/06/24 04:41:12;;;;;;;5.60;3.07;;;;;;;;;;5075633;28;20456;-75
2022/06/24 04:43:39;;;;;;;3.93;3.07;;;;;;;;;;5078532;28;20539;-75
2022/06/24 04:46:06;;;;;;;5.37;3.57;;;;;;;;;;5079805;28;20549;-74
2022/06/24 04:48:35;;;;;;;8.00;3.40;;;;;;;;;;5077775;28;20532;-73
2022/06/24 04:51:03;;;;;;;4.43;3.47;;;;;;;;;;5075177;28;20496;-74
2022/06/24 04:53:30;;;;;;;3.67;3.30;;;;;;;;;;5074855;28;20516;-74
2022/06/24 04:55:57;;;;;;;5.53;3.10;;;;;;;;;;5074613;28;20467;-75
2022/06/24 04:58:25;;;;;;;5.70;3.07;;;;;;;;;;5079926;28;20437;-73
2022/06/24 05:00:52;;;;;;;3.80;3.47;;;;;;;;;;5074110;28;20453;-75
2022/06/24 05:03:19;;;;;;;6.57;3.20;;;;;;;;;;5073936;28;20449;-74
2022/06/24 05:05:47;;;;;;;7.33;3.03;;;;;;;;;;5074949;28;20519;-75
2022/06/24 05:08:14;;;;;;;7.30;3.40;;;;;;;;;;5071281;28;20449;-75
2022/06/24 05:10:42;;;;;;;4.90;2.97;;;;;;;;;;5071827;28;20987;-75
2022/06/24 05:13:09;;;;;;;5.90;3.13;;;;;;;;;;5072009;28;20448;-76
2022/06/24 05:15:36;;;;;;;5.37;3.10;;;;;;;;;;5072064;28;20449;-76
2022/06/24 05:18:03;;;;;;;5.20;3.10;;;;;;;;;;5072019;28;20627;-77
2022/06/24 05:20:31;;;;;;;2.93;2.60;;;;;;;;;;5075812;28;20712;-75
2022/06/24 05:22:59;;;;;;;4.07;3.30;;;;;;;;;;5096333;28;20445;-74
2022/06/24 05:25:26;;;;;;;8.00;3.77;;;;;;;;;;5082691;28;20810;-75
2022/06/24 05:27:53;;;;;;;7.40;4.10;;;;;;;;;;5075429;28;20546;-74
2022/06/24 05:30:20;;;;;;;4.87;3.07;;;;;;;;;;5076775;28;20469;-75
2022/06/24 05:32:47;;;;;;;5.03;3.03;;;;;;;;;;5080623;28;20986;-73
2022/06/24 05:35:14;;;;;;;9.17;3.50;;;;;;;;;;5074499;28;20440;-74
2022/06/24 05:37:41;;;;;;;9.13;3.63;;;;;;;;;;5074675;28;20433;-74
2022/06/24 05:40:10;;;;;;;5.70;3.00;;;;;;;;;;5075790;28;20456;-74
2022/06/24 05:42:37;;;;;;;8.17;3.30;;;;;;;;;;5073590;28;20433;-74
2022/06/24 05:45:05;;;;;;;5.73;2.83;;;;;;;;;;5074163;28;21002;-75
2022/06/24 05:47:32;;;;;;;11.27;3.20;;;;;;;;;;5074466;28;20476;-74
2022/06/24 05:49:59;;;;;;;7.23;3.70;;;;;;;;;;5074891;28;20997;-74
2022/06/24 05:55:07;;;;;;;8.53;3.33;;;;;;;;;;5071194;28;20924;-73
2022/06/24 05:57:35;;;;;;;5.23;2.80;;;;;;;;;;5072052;28;20498;-75
2022/06/24 06:00:02;;;;;;;3.70;3.37;;;;;;;;;;5071572;28;20482;-74
2022/06/24 06:02:29;;;;;;;6.37;3.17;;;;;;;;;;5071295;28;20440;-73
2022/06/24 06:04:56;;;;;;;5.07;2.93;;;;;;;;;;5071541;28;20459;-75
2022/06/24 06:07:23;;;;;;;3.57;2.90;;;;;;;;;;5071723;28;20898;-74
2022/06/24 06:09:50;;;;;;;4.87;2.93;;;;;;;;;;5071065;28;20432;-75
2022/06/24 06:12:17;;;;;;;5.17;3.70;;;;;;;;;;5070873;28;20468;-73
2022/06/24 06:14:46;;;;;;;5.40;3.27;;;;;;;;;;5070497;28;20453;-73
2022/06/24 06:17:13;;;;;;;5.30;2.40;;;;;;;;;;5071330;28;20433;-75
2022/06/24 06:19:40;;;;;;;5.60;2.90;;;;;;;;;;5071119;28;20495;-75
2022/06/24 06:22:07;;;;;;;4.23;3.20;;;;;;;;;;5070672;28;21206;-75
2022/06/24 06:24:34;;;;;;;5.57;2.97;;;;;;;;;;5070576;28;20445;-75
2022/06/24 06:27:01;;;;;;;4.30;2.47;;;;;;;;;;5070362;28;20480;-75
2022/06/24 06:29:28;;;;;;;6.73;3.20;;;;;;;;;;5071085;28;20853;-75
2022/06/24 06:31:56;;;;;;;8.40;2.90;;;;;;;;;;5070847;28;20480;-76
2022/06/24 06:34:23;;;;;;;6.37;3.40;;;;;;;;;;5070632;28;20537;-75
2022/06/24 06:36:50;;;;;;;7.93;2.53;;;;;;;;;;5070619;28;20871;-75
2022/06/24 06:39:17;;;;;;;5.47;3.27;;;;;;;;;;5070494;28;20535;-75
2022/06/24 06:41:46;;;;;;;4.33;2.77;;;;;;;;;;5070623;28;20590;-75
2022/06/24 06:44:14;;;;;;;3.27;2.87;;;;;;;;;;5070712;28;20444;-74
2022/06/24 06:46:41;;;;;;;7.70;2.97;;;;;;;;;;5070336;28;21189;-75
2022/06/24 06:49:10;;;;;;;7.73;2.93;;;;;;;;;;5070597;28;20450;-75
2022/06/24 06:51:37;;;;;;;5.13;2.80;;;;;;;;;;5070365;28;20522;-76
2022/06/24 06:54:04;;;;;;;6.83;3.03;;;;;;;;;;5070411;28;20440;-75
2022/06/24 06:56:31;;;;;;;3.90;2.80;;;;;;;;;;5070962;28;20497;-74
2022/06/24 06:58:58;;;;;;;3.83;3.10;;;;;;;;;;5070759;28;20879;-75
2022/06/24 07:01:25;;;;;;;3.90;2.80;;;;;;;;;;5070791;28;20472;-74
2022/06/24 07:03:52;;;;;;;6.80;2.97;;;;;;;;;;5070651;28;20449;-75
2022/06/24 07:06:21;;;;;;;4.43;2.70;;;;;;;;;;5070291;28;20452;-74
2022/06/24 07:08:48;;;;;;;3.77;2.67;;;;;;;;;;5070188;28;20480;-74
2022/06/24 07:11:15;;;;;;;5.47;3.30;;;;;;;;;;5070791;28;21208;-74
2022/06/24 07:13:42;;;;;;;3.77;3.07;;;;;;;;;;5070416;28;20448;-76
2022/06/24 07:16:10;;;;;;;3.33;3.03;;;;;;;;;;5070383;28;20444;-75
2022/06/24 07:18:37;;;;;;;3.80;2.97;;;;;;;;;;5070080;28;20527;-74
2022/06/24 07:21:04;;;;;;;3.67;2.80;;;;;;;;;;5069839;28;20456;-75
2022/06/24 07:23:32;;;;;;;5.50;3.30;;;;;;;;;;5070656;28;20448;-76
2022/06/24 07:26:00;;;;;;;4.57;3.10;;;;;;;;;;5070271;28;20441;-74
2022/06/24 07:28:29;;;;;;;4.37;3.20;;;;;;;;;;5069763;28;20480;-76
2022/06/24 07:30:56;;;;;;;5.03;2.90;;;;;;;;;;5072148;28;21384;-76
2022/06/24 07:33:24;;;;;;;5.23;2.93;;;;;;;;;;5074027;28;20456;-76
2022/06/24 07:35:51;;;;;;;5.37;2.73;;;;;;;;;;5075033;28;20527;-76
2022/06/24 07:38:19;;;;;;;3.37;2.97;;;;;;;;;;5074757;28;20432;-76
2022/06/24 07:40:47;;;;;;;3.77;2.83;;;;;;;;;;5079771;28;20457;-75
2022/06/24 07:43:14;;;;;;;3.70;2.60;;;;;;;;;;5073717;28;20468;-76
2022/06/24 07:45:41;;;;;;;4.03;3.20;;;;;;;;;;5073983;28;20440;-75
2022/06/24 07:48:09;;;;;;;5.87;4.30;;;;;;;;;;5073988;28;21017;-74
2022/06/24 07:50:36;;;;;;;3.67;3.10;;;;;;;;;;5080450;28;20813;-75
2022/06/24 07:53:03;;;;;;;5.97;5.47;;;;;;;;;;5081982;28;20437;-75
2022/06/24 07:58:16;;;;;;;4.70;3.00;;;;;;;;;;5083524;28;20412;-74
2022/06/24 08:00:43;;;;;;;4.60;3.07;;;;;;;;;;5083306;28;20468;-75
2022/06/24 08:03:10;;;;;;;3.40;3.20;;;;;;;;;;5077716;28;20449;-74
2022/06/24 08:05:37;;;;;;;5.77;3.30;;;;;;;;;;5068941;28;20461;-75
2022/06/24 08:08:04;;;;;;;2.83;2.40;;;;;;;;;;5058318;28;20476;-74
2022/06/24 08:10:31;;;;;;;3.73;3.10;;;;;;;;;;5075074;28;20464;-75
2022/06/24 08:12:58;;;;;;;2.93;2.60;;;;;;;;;;5068127;28;20448;-74
2022/06/24 08:15:27;;;;;;;3.60;2.97;;;;;;;;;;5074666;28;20445;-76
2022/06/24 08:17:54;;;;;;;2.40;2.20;;;;;;;;;;5069165;28;20466;-74
2022/06/24 08:20:21;;;;;;;4.40;2.43;;;;;;;;;;5074450;28;20460;-75
2022/06/24 08:22:48;;;;;;;3.13;2.20;;;;;;;;;;5073933;28;20453;-75
2022/06/24 08:25:15;;;;;;;3.00;1.97;;;;;;;;;;5074129;28;20445;-75
2022/06/24 08:27:42;;;;;;;4.50;2.63;;;;;;;;;;5074134;28;20521;-74
2022/06/24 08:30:10;;;;;;;3.10;2.07;;;;;;;;;;5074172;28;20499;-76
2022/06/24 08:32:38;;;;;;;3.47;1.90;;;;;;;;;;5073518;28;20524;-75
2022/06/24 08:35:06;;;;;;;5.23;2.17;;;;;;;;;;5078922;28;20444;-76
2022/06/24 08:37:33;;;;;;;2.40;1.80;;;;;;;;;;5073534;28;20999;-74
2022/06/24 08:40:00;;;;;;;2.97;2.23;;;;;;;;;;5073814;28;20425;-75
2022/06/24 08:42:29;;;;;;;2.07;1.90;;;;;;;;;;5072647;28;20557;-74
2022/06/24 08:44:59;;;;;;;3.27;1.80;;;;;;;;;;5073805;28;20487;-75
2022/06/24 08:47:26;;;;;;;1.57;1.47;;;;;;;;;;5074217;28;20472;-75
2022/06/24 08:49:55;;;;;;;2.67;2.20;;;;;;;;;;5074582;28;20843;-74
2022/06/24 08:52:22;;;;;;;2.30;1.93;;;;;;;;;;5074242;28;20493;-75
2022/06/24 08:54:50;;;;;;;4.50;2.00;;;;;;;;;;5073915;28;21023;-74
2022/06/24 08:57:17;;;;;;;2.97;2.50;;;;;;;;;;5074015;28;20440;-75
2022/06/24 08:59:46;;;;;;;3.17;2.00;;;;;;;;;;5074264;28;20554;-75
2022/06/24 09:02:14;;;;;;;2.10;1.70;;;;;;;;;;5073885;28;20460;-74
2022/06/24 09:04:44;;;;;;;4.90;2.40;;;;;;;;;;5073605;28;20445;-74
2022/06/24 09:07:17;;;;;;;5.70;2.13;;;;;;;;;;5074106;28;20459;-75
2022/06/24 09:09:57;;;;;;;2.50;2.23;;;;;;;;;;5060105;28;20445;-75
2022/06/24 09:12:24;;;;;;;2.50;2.20;;;;;;;;;;5069749;28;20513;-76
2022/06/24 09:14:51;;;;;;;2.77;2.00;;;;;;;;;;5074811;28;20437;-76
2022/06/24 09:17:18;;;;;;;1.90;1.77;;;;;;;;;;5055907;28;20442;-74
2022/06/24 09:19:45;;;;;;;6.20;2.50;;;;;;;;;;5054690;28;20999;-76
2022/06/24 09:22:12;;;;;;;4.10;2.47;;;;;;;;;;5053599;28;20503;-75
2022/06/24 09:24:47;;;;;;;4.53;2.17;;;;;;;;;;5053013;28;20937;-76
2022/06/24 09:27:14;;;;;;;1.80;1.70;;;;;;;;;;5053184;28;20444;-75
2022/06/24 09:29:47;;;;;;;2.13;2.03;;;;;;;;;;5053119;28;20477;-75
2022/06/24 09:32:14;;;;;;;2.50;2.30;;;;;;;;;;5052906;28;20562;-76
2022/06/24 09:34:58;;;;;;;2.20;2.10;;;;;;;;;;5052880;28;20472;-76
2022/06/24 09:37:35;;;;;;;2.80;2.60;;;;;;;;;;5053430;28;20798;-77
2022/06/24 09:40:15;;;;;;;2.90;2.67;;;;;;;;;;5053217;28;20425;-75
2022/06/24 09:42:42;;;;;;;3.83;2.80;;;;;;;;;;5053545;28;20425;-76
2022/06/24 09:45:09;;;;;;;5.10;2.93;;;;;;;;;;5052833;28;20445;-74
2022/06/24 09:47:39;;;;;;;4.37;2.83;;;;;;;;;;5052686;28;20867;-75
2022/06/24 09:50:06;;;;;;;3.87;2.47;;;;;;;;;;5060228;28;20448;-76
2022/06/24 09:52:34;;;;;;;3.40;2.50;;;;;;;;;;5071365;28;20924;-75
2022/06/24 09:55:01;;;;;;;2.60;2.47;;;;;;;;;;5071294;28;20436;-76
2022/06/24 09:57:31;;;;;;;4.37;2.60;;;;;;;;;;5071073;28;20532;-75
2022/06/24 10:02:43;;;;;;;2.50;2.30;;;;;;;;;;5070900;28;20459;-75
2022/06/24 10:05:11;;;;;;;4.07;2.43;;;;;;;;;;5071184;28;20432;-75
2022/06/24 10:07:38;;;;;;;3.40;2.40;;;;;;;;;;5071068;28;20460;-75
2022/06/24 10:10:06;;;;;;;2.67;2.40;;;;;;;;;;5051728;28;20487;-76
2022/06/24 10:12:36;;;;;;;3.57;2.30;;;;;;;;;;5051743;28;20445;-75
2022/06/24 10:15:03;;;;;;;2.27;2.10;;;;;;;;;;5052241;28;20487;-76
2022/06/24 10:17:30;;;;;;;3.60;2.43;;;;;;;;;;5051963;28;20503;-75
2022/06/24 10:19:58;;;;;;;3.80;2.20;;;;;;;;;;5052091;28;20878;-76
2022/06/24 10:22:37;;;;;;;2.30;1.93;;;;;;;;;;5051966;28;20449;-76
2022/06/24 10:25:04;;;;;;;2.27;2.00;;;;;;;;;;5052010;28;20452;-76
2022/06/24 10:27:46;;;;;;;3.73;1.60;;;;;;;;;;5052243;28;20994;-75
2022/06/24 10:30:35;;;;;;;8.10;3.20;;;;;;;;;;5051548;28;20499;-76
2022/06/24 10:33:12;;;;;;;4.47;3.20;;;;;;;;;;5056471;28;20444;-76
2022/06/24 10:35:54;;;;;;;4.67;3.10;;;;;;;;;;5065085;28;20449;-76
2022/06/24 10:38:21;;;;;;;6.83;3.00;;;;;;;;;;5063768;28;20502;-74
2022/06/24 10:40:49;;;;;;;4.80;3.33;;;;;;;;;;5071563;28;20518;-76
2022/06/24 10:43:33;;;;;;;7.03;3.23;;;;;;;;;;5071080;28;20783;-76
2022/06/24 10:46:16;;;;;;;7.13;3.27;;;;;;;;;;5071492;28;20463;-76
2022/06/24 10:48:58;;;;;;;7.33;3.17;;;;;;;;;;5071104;28;20511;-77
2022/06/24 10:51:31;;;;;;;3.20;2.90;;;;;;;;;;5071247;28;20496;-74
2022/06/24 10:54:14;;;;;;;3.40;2.63;;;;;;;;;;5069158;28;20503;-75
2022/06/24 10:56:42;;;;;;;3.50;3.00;;;;;;;;;;5071115;28;20436;-75
2022/06/24 10:59:10;;;;;;;3.40;3.10;;;;;;;;;;5071198;28;20498;-76
2022/06/24 11:01:41;;;;;;;3.60;2.83;;;;;;;;;;5070845;28;20494;-76
2022/06/24 11:04:09;;;;;;;4.30;3.10;;;;;;;;;;5070549;28;20528;-77
2022/06/24 11:06:36;;;;;;;3.73;3.07;;;;;;;;;;5070666;28;20441;-76
2022/06/24 11:09:06;;;;;;;3.10;2.90;;;;;;;;;;5059638;28;20604;-75
2022/06/24 11:11:34;;;;;;;3.17;2.70;;;;;;;;;;5051258;28;20465;-76
2022/06/24 11:14:01;;;;;;;6.67;3.60;;;;;;;;;;5050983;28;20503;-76
2022/06/24 11:16:28;;;;;;;3.63;2.80;;;;;;;;;;5050784;28;20472;-76
2022/06/24 11:18:58;;;;;;;4.27;3.07;;;;;;;;;;5051090;28;20449;-77
2022/06/24 11:21:25;;;;;;;6.43;3.17;;;;;;;;;;5051219;28;20881;-75
2022/06/24 11:23:55;;;;;;;3.10;2.80;;;;;;;;;;5050787;28;20449;-76
2022/06/24 11:26:22;;;;;;;5.07;3.00;;;;;;;;;;5050925;28;20534;-76
2022/06/24 11:28:51;;;;;;;3.03;2.70;;;;;;;;;;5050917;28;20477;-75
2022/06/24 11:31:19;;;;;;;3.70;3.20;;;;;;;;;;5050799;28;20909;-76
2022/06/24 11:33:47;;;;;;;2.90;2.37;;;;;;;;;;5050762;28;20467;-76
2022/06/24 11:36:15;;;;;;;2.90;2.40;;;;;;;;;;5050511;28;20851;-76
2022/06/24 11:38:49;;;;;;;4.67;2.90;;;;;;;;;;5050665;28;20441;-75
2022/06/24 11:41:23;;;;;;;3.60;2.37;;;;;;;;;;5050662;28;20495;-74
2022/06/24 11:43:50;;;;;;;2.47;2.37;;;;;;;;;;5050593;28;20455;-75
2022/06/24 11:46:18;;;;;;;2.77;2.57;;;;;;;;;;5050624;28;20442;-75
2022/06/24 11:48:45;;;;;;;2.40;2.10;;;;;;;;;;5050589;28;20499;-75
2022/06/24 11:51:19;;;;;;;5.07;2.50;;;;;;;;;;5050489;28;21061;-75
2022/06/24 11:53:57;;;;;;;3.80;2.27;;;;;;;;;;5051737;28;20506;-76
2022/06/24 11:56:24;;;;;;;2.40;2.20;;;;;;;;;;5052807;28;20467;-75
2022/06/24 11:58:51;;;;;;;5.03;2.37;;;;;;;;;;5052238;28;20446;-75
2022/06/24 12:01:18;;;;;;;2.00;1.90;;;;;;;;;;5051025;28;20893;-75
2022/06/24 12:03:47;;;;;;;2.97;2.07;;;;;;;;;;5050558;28;20446;-75
2022/06/24 12:06:14;;;;;;;2.70;1.83;;;;;;;;;;5051068;28;20533;-76
2022/06/24 12:08:42;;;;;;;3.70;2.47;;;;;;;;;;5050711;28;20469;-75
2022/06/24 12:11:17;;;;;;;3.90;2.10;;;;;;;;;;5051308;28;20503;-74
2022/06/24 12:13:56;;;;;;;4.33;2.20;;;;;;;;;;5050025;28;20795;-76
2022/06/24 12:16:23;;;;;;;2.53;2.27;;;;;;;;;;5050910;28;21000;-75
2022/06/24 12:18:50;;;;;;;3.20;1.90;;;;;;;;;;5054202;28;20860;-75
2022/06/24 12:21:24;;;;;;;4.00;2.20;;;;;;;;;;5054474;28;20465;-76
2022/06/24 12:23:53;;;;;;;2.30;2.10;;;;;;;;;;5054386;28;20472;-75
2022/06/24 12:26:21;;;;;;;3.43;1.63;;;;;;;;;;5054804;28;20525;-76
2022/06/24 12:28:59;;;;;;;1.90;1.80;;;;;;;;;;5054340;28;20473;-76
2022/06/24 12:31:26;;;;;;;2.10;1.70;;;;;;;;;;5053684;28;20465;-75
2022/06/24 12:33:54;;;;;;;3.00;1.63;;;;;;;;;;5053906;28;20503;-76
2022/06/24 12:36:22;;;;;;;4.57;2.00;;;;;;;;;;5054082;28;20519;-75
2022/06/24 12:39:02;;;;;;;2.33;1.80;;;;;;;;;;5054369;28;20500;-76
2022/06/24 12:41:29;;;;;;;4.27;1.90;;;;;;;;;;5053831;28;20454;-76
2022/06/24 12:43:57;;;;;;;1.57;1.47;;;;;;;;;;5053445;28;20441;-76
2022/06/24 12:46:25;;;;;;;1.70;1.57;;;;;;;;;;5053817;28;20944;-77
2022/06/24 12:51:41;;;;;;;3.27;2.40;;;;;;;;;;5053567;28;20432;-76
2022/06/24 12:54:09;;;;;;;5.80;2.40;;;;;;;;;;5053395;28;20528;-75
2022/06/24 12:56:36;;;;;;;2.00;1.90;;;;;;;;;;5053383;28;20453;-75
2022/06/24 12:59:04;;;;;;;3.27;1.90;;;;;;;;;;5053584;28;20445;-76
2022/06/24 13:01:31;;;;;;;2.20;2.10;;;;;;;;;;5053413;28;20511;-76
2022/06/24 13:03:59;;;;;;;3.17;2.40;;;;;;;;;;5052812;28;20456;-74
2022/06/24 13:06:26;;;;;;;3.23;2.27;;;;;;;;;;5053145;28;20524;-75
2022/06/24 13:08:53;;;;;;;4.27;2.67;;;;;;;;;;5062846;28;20518;-75
2022/06/24 13:11:22;;;;;;;3.90;2.97;;;;;;;;;;5072899;28;20522;-76
2022/06/24 13:13:49;;;;;;;5.90;2.77;;;;;;;;;;5072845;28;20498;-75
2022/06/24 13:16:16;;;;;;;3.20;2.40;;;;;;;;;;5073335;28;20444;-75
2022/06/24 13:18:43;;;;;;;4.03;2.53;;;;;;;;;;5072993;28;20440;-75
2022/06/24 13:21:10;;;;;;;2.80;2.60;;;;;;;;;;5072990;28;20468;-75
2022/06/24 13:23:37;;;;;;;4.20;2.30;;;;;;;;;;5072293;28;20866;-75
2022/06/24 13:26:04;;;;;;;4.80;3.03;;;;;;;;;;5073090;28;20448;-75
2022/06/24 13:28:34;;;;;;;2.67;2.47;;;;;;;;;;5072554;28;20440;-75
2022/06/24 13:31:02;;;;;;;2.63;2.20;;;;;;;;;;5073755;28;20469;-75
2022/06/24 13:33:29;;;;;;;3.53;2.30;;;;;;;;;;5072416;28;20452;-75
2022/06/24 13:35:56;;;;;;;2.87;2.00;;;;;;;;;;5072844;28;20448;-75
2022/06/24 13:38:23;;;;;;;2.70;2.50;;;;;;;;;;5072579;28;20846;-75
2022/06/24 13:40:50;;;;;;;2.87;2.43;;;;;;;;;;5072948;28;20553;-75
2022/06/24 13:43:18;;;;;;;2.17;1.97;;;;;;;;;;5072812;28;20440;-74
2022/06/24 13:45:47;;;;;;;5.77;2.67;;;;;;;;;;5073229;28;20436;-75
2022/06/24 13:48:15;;;;;;;5.70;3.70;;;;;;;;;;5077050;28;20463;-75
2022/06/24 13:50:42;;;;;;;4.60;3.60;;;;;;;;;;5089699;28;20480;-75
2022/06/24 13:53:09;;;;;;;3.57;2.50;;;;;;;;;;5075110;28;20437;-75
2022/06/24 13:55:36;;;;;;;2.43;2.20;;;;;;;;;;5074468;28;20448;-76
2022/06/24 13:58:03;;;;;;;4.50;2.60;;;;;;;;;;5073226;28;20444;-76
2022/06/24 14:00:30;;;;;;;2.90;2.60;;;;;;;;;;5072310;28;20832;-76
2022/06/24 14:02:59;;;;;;;5.30;3.00;;;;;;;;;;5072730;28;20501;-75
2022/06/24 14:05:26;;;;;;;2.50;2.40;;;;;;;;;;5072664;28;20494;-75
2022/06/24 14:07:53;;;;;;;2.97;2.77;;;;;;;;;;5070445;28;20873;-75
2022/06/24 14:10:20;;;;;;;3.13;2.83;;;;;;;;;;5052182;28;20481;-75
2022/06/24 14:12:47;;;;;;;3.50;3.07;;;;;;;;;;5051730;28;20806;-74
2022/06/24 14:15:15;;;;;;;3.60;3.30;;;;;;;;;;5052404;28;20453;-75
2022/06/24 14:17:42;;;;;;;3.13;2.90;;;;;;;;;;5051960;28;21008;-74
2022/06/24 14:20:11;;;;;;;3.80;3.40;;;;;;;;;;5051909;28;20461;-75
2022/06/24 14:24:31;;;;;;;3.27;2.97;;;;;;;;;;5052072;28;20861;-75
2022/06/24 14:25:25;;;;;;;3.73;3.43;;;;;;;;;;5051683;28;20441;-74
2022/06/24 14:27:52;;;;;;;3.00;2.80;;;;;;;;;;5051952;28;20448;-75
2022/06/24 14:30:19;;;;;;;4.87;3.00;;;;;;;;;;5051713;28;20832;-75
2022/06/24 14:32:46;;;;;;;3.50;3.20;;;;;;;;;;5051278;28;20949;-74
2022/06/24 14:35:14;;;;;;;3.83;3.23;;;;;;;;;;5052695;28;20528;-75
2022/06/24 14:40:26;;;;;;;6.73;3.33;;;;;;;;;;5051032;28;20964;-75
2022/06/24 14:42:53;;;;;;;4.20;3.90;;;;;;;;;;5051328;28;20491;-75
2022/06/24 14:45:20;;;;;;;4.53;3.40;;;;;;;;;;5051735;28;20441;-75
2022/06/24 14:47:47;;;;;;;4.47;3.50;;;;;;;;;;5051729;28;20446;-76
2022/06/24 14:50:15;;;;;;;4.97;3.20;;;;;;;;;;5051690;28;20682;-74
2022/06/24 14:52:42;;;;;;;7.73;3.27;;;;;;;;;;5051335;28;20502;-74
2022/06/24 14:55:10;;;;;;;3.50;2.93;;;;;;;;;;5051199;28;20507;-75
2022/06/24 14:57:37;;;;;;;3.17;2.73;;;;;;;;;;5051484;28;20442;-74
2022/06/24 15:00:04;;;;;;;5.80;3.60;;;;;;;;;;5051409;28;20850;-75
2022/06/24 15:02:31;;;;;;;3.37;2.63;;;;;;;;;;5051295;28;20449;-75
2022/06/24 15:04:58;;;;;;;2.33;2.13;;;;;;;;;;5051295;28;20507;-75
2022/06/24 15:07:27;;;;;;;2.27;2.13;;;;;;;;;;5051141;28;20442;-74